WetterOnline ( https://www.wetteronline.de )

Wetter aktuell Langeoog

Aktuelles Wetter: Emden (5m)

6-stündlich | Neueste Meldungen
Ortszeit Temperatur Wetter
Do, 24.10. 2:00 11.9° C bedeckt
Mi, 23.10. 20:00 11.5° C wolkenlos
Mi, 23.10. 14:00 12.5° C bedeckt
Mi, 23.10. 8:00 4.9° C Nebel
Mi, 23.10. 2:00 10.6° C bedeckt
Di, 22.10. 20:00 11.8° C bedeckt
Di, 22.10. 14:00 13.6° C bewölkt
Di, 22.10. 8:00 11.3° C bewölkt
Ortszeit Temperatur Wetter
Do, 24.10. 5:30 11.0° C wolkig
Do, 24.10. 5:20 11.0° C wolkig
Do, 24.10. 5:10 11.0° C bedeckt
Do, 24.10. 5:00 11.0° C bedeckt
Do, 24.10. 4:50 11.0° C bedeckt
Do, 24.10. 4:40 11.0° C bedeckt
Do, 24.10. 4:30 10.8° C bedeckt
Do, 24.10. 4:00 11.1° C bedeckt
Do, 24.10. 3:30 10.9° C bedeckt
Do, 24.10. 3:00 11.4° C bedeckt
Do, 24.10. 2:30 11.8° C bedeckt
Ortszeit Relative Feuchte Sichtweite
Do, 24.10. 2:00 97% 3.8 km
Mi, 23.10. 20:00 92% 9 km
Mi, 23.10. 14:00 90% 8 km
Mi, 23.10. 8:00 100% 100 m
Mi, 23.10. 2:00 87% 35 km
Di, 22.10. 20:00 93% 35 km
Di, 22.10. 14:00 88% 9 km
Di, 22.10. 8:00 91% 8 km
Ortszeit Relative Feuchte Sichtweite
Do, 24.10. 5:30 99% 1.9 km
Do, 24.10. 5:20 99% -
Do, 24.10. 5:10 99% -
Do, 24.10. 5:00 99% 2.1 km
Do, 24.10. 4:50 99% -
Do, 24.10. 4:40 99% -
Do, 24.10. 4:30 99% 2.1 km
Do, 24.10. 4:00 99% 2.2 km
Do, 24.10. 3:30 99% 2.1 km
Do, 24.10. 3:00 99% 3.1 km
Do, 24.10. 2:30 97% 3.8 km
Ortszeit Niederschlagsmenge Niederschlagsart
Do, 24.10. 2:00 0.1 l/m2 in 6 Std. Regen
Mi, 23.10. 20:00 0.0 l/m2 in 12 Std. -
Mi, 23.10. 14:00 0.0 l/m2 in 6 Std. -
Mi, 23.10. 8:00 0.0 l/m2 in 12 Std. -
Mi, 23.10. 2:00 0.0 l/m2 in 6 Std. -
Di, 22.10. 20:00 0.1 l/m2 in 12 Std. Regen
Di, 22.10. 14:00 0.0 l/m2 in 6 Std. -
Di, 22.10. 8:00 0.0 l/m2 in 12 Std. -
Ortszeit Niederschlagsmenge Niederschlagsart
Do, 24.10. 5:30 0.0 l/m2 in 1 Std. -
Do, 24.10. 5:20 keine Meldung -
Do, 24.10. 5:10 keine Meldung -
Do, 24.10. 5:00 0.0 l/m2 in 1 Std. -
Do, 24.10. 4:50 keine Meldung -
Do, 24.10. 4:40 keine Meldung -
Do, 24.10. 4:30 0.0 l/m2 in 1 Std. -
Do, 24.10. 4:00 0.0 l/m2 in 1 Std. -
Do, 24.10. 3:30 0.0 l/m2 in 1 Std. -
Do, 24.10. 3:00 0.0 l/m2 in 1 Std. -
Do, 24.10. 2:30 0.0 l/m2 in 1 Std. -
Ortszeit Stärke Spitze Richtung
km/h Bft. km/h Grad Sektor
Do, 24.10. 2:00 11 2 25 120° SO
Mi, 23.10. 20:00 13 3 24 110° O
Mi, 23.10. 14:00 11 2 18 90° O
Mi, 23.10. 8:00 4 1 7 100° O
Mi, 23.10. 2:00 4 1 11 250° W
Di, 22.10. 20:00 0 0 25 - -
Di, 22.10. 14:00 15 3 30 210° SW
Di, 22.10. 8:00 14 3 32 200° S
Ortszeit Stärke Spitze Richtung
km/h Bft. km/h Grad Sektor
Do, 24.10. 5:30 11 2 18 130° SO
Do, 24.10. 5:20 11 2 - 130° SO
Do, 24.10. 5:10 13 3 - 140° SO
Do, 24.10. 5:00 11 2 14 130° SO
Do, 24.10. 4:50 11 2 - 130° SO
Do, 24.10. 4:40 11 2 - 140° SO
Do, 24.10. 4:30 11 2 14 140° SO
Do, 24.10. 4:00 11 2 15 120° SO
Do, 24.10. 3:30 7 2 11 120° SO
Do, 24.10. 3:00 7 2 18 120° SO
Do, 24.10. 2:30 11 2 18 140° SO
Ortszeit Untergrenze Bedeckung Gattung
total tief tief mittel hoch
Do, 24.10. 2:00 3600 m 8/8 8/8 - - -
Mi, 23.10. 20:00 - 0/8 0/8 - - -
Mi, 23.10. 14:00 180 m 8/8 8/8 - - -
Mi, 23.10. 8:00 <30 m 7/8 0/8 - - -
Mi, 23.10. 2:00 840 m 8/8 8/8 - - -
Di, 22.10. 20:00 510 m 8/8 8/8 - - -
Di, 22.10. 14:00 270 m 7/8 7/8 - - -
Di, 22.10. 8:00 270 m 7/8 7/8 - - -
Ortszeit Bedeckungsgrad in Achtel und Wolkenuntergrenze
Do, 24.10. 5:30 2(30m) 8(3900m) 8(4800m)
Do, 24.10. 5:20 2(30m) 8(3900m) 8(4800m)
Do, 24.10. 5:10 8(3900m) 8(4800m)
Do, 24.10. 5:00 6(3900m) 8(4500m) 8(5400m)
Do, 24.10. 4:50 6(3900m) 8(4500m) 8(5400m)
Do, 24.10. 4:40 7(4200m) 8(5100m) 8(6900m)
Do, 24.10. 4:30 7(4800m) 8(5400m) 8(6900m)
Do, 24.10. 4:00 8(4200m) 8(5100m)
Do, 24.10. 3:30 7(3900m) 8(4800m) 8(5700m)
Do, 24.10. 3:00 4(3900m) 8(4800m) 8(6000m)
Do, 24.10. 2:30 7(3900m) 8(4800m)
Ortszeit Luftdruck NN (hPa) Tendenz (hPa in 3 Std.)
Do, 24.10. 2:00 1009 - 1,2
Mi, 23.10. 20:00 1013 - 2,2
Mi, 23.10. 14:00 1017 - 2,5
Mi, 23.10. 8:00 1020 - 1,4
Mi, 23.10. 2:00 1023 0,0
Di, 22.10. 20:00 1023 + 0,6
Di, 22.10. 14:00 1023 + 0,8
Di, 22.10. 8:00 1020 + 0,4
Ortszeit Luftdruck NN (hPa) Tendenz (hPa in 3 Std.)
Do, 24.10. 5:30 1007 - 1,4
Do, 24.10. 5:20 1007 keine Meldung
Do, 24.10. 5:10 1007 keine Meldung
Do, 24.10. 5:00 1008 - 1,2
Do, 24.10. 4:50 1008 keine Meldung
Do, 24.10. 4:40 1008 keine Meldung
Do, 24.10. 4:30 1008 - 1,7
Do, 24.10. 4:00 1008 - 1,6
Do, 24.10. 3:30 1008 - 2,1
Do, 24.10. 3:00 1009 - 1,4
Do, 24.10. 2:30 1009 - 1,2
Ortszeit Schneehöhe (cm)
Do, 24.10. 2:00 0
Mi, 23.10. 20:00 0
Mi, 23.10. 14:00 0
Mi, 23.10. 8:00 0
Mi, 23.10. 2:00 0
Di, 22.10. 20:00 0
Di, 22.10. 14:00 0
Di, 22.10. 8:00 0
Ortszeit Schneehöhe (cm)
Do, 24.10. 5:30 0
Do, 24.10. 5:20 0
Do, 24.10. 5:10 0
Do, 24.10. 5:00 0
Do, 24.10. 4:50 0
Do, 24.10. 4:40 0
Do, 24.10. 4:30 0
Do, 24.10. 4:00 0
Do, 24.10. 3:30 0
Do, 24.10. 3:00 0
Do, 24.10. 2:30 0
Link zu dieser Seite / Seite empfehlen

Das Wetter in ...